Beloit, Wisconsin
Current Conditions -  °F | °C
As of 1:45 PM on Friday 28 Nov 2014 (Local Time) from KJVL Reporting Station
Clear Clear  
Wind Chill: -9°   Ceiling: Unl
Heat Index: -2°   Visibility: 10mi
Dew Point: -6°   Wind: 17mph
Humidity: 74%   Direction: 160°SSE
Pressure: 29.97"   Gusts: NA
Location:  42.51°N, 89.03°W
Report Text: KJVL 281945Z 16015KT 10SM CLR M02/M06 A2997
Loading
Personal Weather Stations






























Interactive Weather Map New forecast layout! Learn more

10-Day Weather Forecast

Advertisements
Track Severe Weather on mobile